Time;durP1;ratioP1;P1;durP2;ratioP2;P2;SDS_P1;SDS_P2;PMS_P1;PMS_P2;Temp;Humidity;BMP_temperature;BMP_pressure;BME280_temperature;BME280_humidity;BME280_pressure;Samples;Min_cycle;Max_cycle;Signal;HPM_P1;HPM_P2
2021/03/23 00:01:53;;;;;;;11.93;4.72;;;5.80;99.90;;;;;;1923427;74;21066;-74
2021/03/23 00:04:19;;;;;;;8.83;5.05;;;5.70;99.90;;;;;;1915757;74;21106;-74
2021/03/23 00:06:45;;;;;;;8.05;4.85;;;5.70;99.90;;;;;;1921051;74;21139;-74
2021/03/23 00:09:11;;;;;;;8.78;5.00;;;5.70;99.90;;;;;;1913896;74;21103;-74
2021/03/23 00:11:37;;;;;;;8.28;4.50;;;5.70;99.90;;;;;;1922183;74;21083;-73
2021/03/23 00:14:04;;;;;;;11.75;5.00;;;5.60;99.90;;;;;;1935404;74;21129;-74
2021/03/23 00:16:30;;;;;;;10.48;4.87;;;5.50;99.90;;;;;;1922992;74;21131;-74
2021/03/23 00:18:56;;;;;;;11.75;4.85;;;5.60;99.90;;;;;;1927174;74;21070;-73
2021/03/23 00:21:22;;;;;;;8.63;4.05;;;5.50;99.90;;;;;;1928279;74;21145;-73
2021/03/23 00:23:48;;;;;;;12.65;4.95;;;5.50;99.90;;;;;;1927099;74;21427;-73
2021/03/23 00:26:15;;;;;;;7.67;3.95;;;5.40;99.90;;;;;;1924503;74;21026;-74
2021/03/23 00:28:46;;;;;;;7.85;4.25;;;5.50;99.90;;;;;;1919895;74;21111;-73
2021/03/23 00:31:11;;;;;;;9.58;5.33;;;5.50;99.90;;;;;;1919166;74;21035;-74
2021/03/23 00:33:37;;;;;;;8.75;4.67;;;5.50;99.90;;;;;;1926953;74;21151;-73
2021/03/23 00:36:03;;;;;;;11.18;4.72;;;5.50;99.90;;;;;;1917487;74;21090;-73
2021/03/23 00:38:29;;;;;;;10.32;4.70;;;5.50;99.90;;;;;;1925905;74;21083;-73
2021/03/23 00:40:55;;;;;;;8.98;4.85;;;5.60;99.90;;;;;;1933792;74;21129;-74
2021/03/23 00:43:21;;;;;;;9.95;4.17;;;5.60;99.90;;;;;;1928082;74;21044;-73
2021/03/23 00:45:47;;;;;;;16.48;4.90;;;5.50;99.90;;;;;;1922656;74;21165;-74
2021/03/23 00:48:13;;;;;;;6.45;4.22;;;5.70;99.90;;;;;;1933594;74;21479;-73
2021/03/23 00:50:41;;;;;;;15.18;5.10;;;5.70;99.90;;;;;;1915023;74;21574;-72
2021/03/23 00:53:07;;;;;;;13.25;4.60;;;5.50;99.90;;;;;;1927004;74;21097;-74
2021/03/23 00:55:33;;;;;;;8.78;4.70;;;5.60;99.90;;;;;;1917388;74;21061;-73
2021/03/23 00:57:59;;;;;;;12.20;5.30;;;5.60;99.90;;;;;;1928197;74;21039;-74
2021/03/23 01:00:25;;;;;;;8.68;4.40;;;5.50;99.90;;;;;;1934603;74;21071;-74
2021/03/23 01:02:51;;;;;;;9.35;4.90;;;5.50;99.90;;;;;;1921319;74;21078;-73
2021/03/23 01:05:18;;;;;;;7.87;4.40;;;5.50;99.90;;;;;;1913960;74;21673;-74
2021/03/23 01:07:44;;;;;;;7.83;4.35;;;5.50;99.90;;;;;;1913869;74;21611;-74
2021/03/23 01:10:10;;;;;;;9.68;4.55;;;5.60;99.90;;;;;;1931344;74;21499;-73
2021/03/23 01:12:36;;;;;;;8.10;4.53;;;5.60;99.90;;;;;;1935257;74;21447;-73
2021/03/23 01:15:02;;;;;;;15.60;4.37;;;5.60;99.90;;;;;;1923458;74;21069;-73
2021/03/23 01:17:28;;;;;;;7.70;4.12;;;5.60;99.90;;;;;;1913973;74;21065;-73
2021/03/23 01:19:54;;;;;;;7.10;3.90;;;5.60;99.90;;;;;;1926613;74;21152;-74
2021/03/23 01:22:23;;;;;;;10.75;5.08;;;5.60;99.90;;;;;;1928399;74;21074;-73
2021/03/23 01:24:48;;;;;;;7.45;4.30;;;5.50;99.90;;;;;;1919399;74;21111;-74
2021/03/23 01:27:15;;;;;;;6.53;4.45;;;5.50;99.90;;;;;;1920738;74;21199;-74
2021/03/23 01:29:41;;;;;;;13.50;5.37;;;5.50;99.90;;;;;;1925863;74;21132;-74
2021/03/23 01:32:07;;;;;;;7.45;4.78;;;5.50;99.90;;;;;;1921999;74;21040;-74
2021/03/23 01:34:34;;;;;;;10.08;4.35;;;5.50;99.90;;;;;;1933713;74;21137;-73
2021/03/23 01:37:00;;;;;;;8.18;4.05;;;5.40;99.90;;;;;;1918641;74;21066;-74
2021/03/23 01:39:26;;;;;;;9.20;4.83;;;5.50;99.90;;;;;;1930696;74;21044;-73
2021/03/23 01:41:53;;;;;;;19.42;5.80;;;5.50;99.90;;;;;;1927883;74;21070;-74
2021/03/23 01:44:19;;;;;;;11.15;4.97;;;5.40;99.90;;;;;;1915673;74;21061;-74
2021/03/23 01:46:45;;;;;;;9.40;4.28;;;5.40;99.90;;;;;;1935190;74;21075;-75
2021/03/23 01:49:11;;;;;;;8.88;4.10;;;5.50;99.90;;;;;;1927198;74;21068;-74
2021/03/23 01:51:37;;;;;;;14.35;4.72;;;5.50;99.90;;;;;;1930325;74;21114;-74
2021/03/23 01:54:03;;;;;;;8.43;4.33;;;5.60;99.90;;;;;;1929160;74;21139;-74
2021/03/23 01:56:29;;;;;;;16.42;5.08;;;5.60;99.90;;;;;;1919740;74;21153;-74
2021/03/23 01:58:55;;;;;;;8.05;4.80;;;5.50;99.90;;;;;;1923814;74;21135;-74
2021/03/23 02:01:22;;;;;;;10.65;4.22;;;5.50;99.90;;;;;;1935022;74;21189;-74
2021/03/23 02:03:48;;;;;;;8.33;4.62;;;5.50;99.90;;;;;;1916859;74;21571;-74
2021/03/23 02:06:14;;;;;;;6.83;3.65;;;5.50;99.90;;;;;;1926472;74;21455;-74
2021/03/23 02:08:40;;;;;;;9.05;4.12;;;5.50;99.90;;;;;;1924739;74;21551;-74
2021/03/23 02:11:06;;;;;;;6.08;4.12;;;5.40;99.90;;;;;;1919716;74;21038;-74
2021/03/23 02:13:32;;;;;;;9.40;5.12;;;5.40;99.90;;;;;;1930541;74;21070;-74
2021/03/23 02:15:58;;;;;;;9.55;4.65;;;5.40;99.90;;;;;;1923517;74;21215;-74
2021/03/23 02:18:24;;;;;;;11.68;5.17;;;5.50;99.90;;;;;;1929211;74;21132;-74
2021/03/23 02:20:50;;;;;;;9.15;4.40;;;5.40;99.90;;;;;;1921303;74;21075;-74
2021/03/23 02:23:17;;;;;;;8.48;4.40;;;5.40;99.90;;;;;;1935175;74;21040;-74
2021/03/23 02:25:43;;;;;;;12.90;4.60;;;5.40;99.90;;;;;;1927370;74;21067;-74
2021/03/23 02:28:09;;;;;;;8.58;4.00;;;5.40;99.90;;;;;;1919832;74;21061;-73
2021/03/23 02:30:35;;;;;;;13.93;5.03;;;5.40;99.90;;;;;;1923445;74;21066;-74
2021/03/23 02:33:01;;;;;;;7.33;4.53;;;5.40;99.90;;;;;;1921010;74;21143;-74
2021/03/23 02:35:27;;;;;;;10.03;4.80;;;5.40;99.90;;;;;;1924358;74;21073;-74
2021/03/23 02:37:53;;;;;;;10.78;4.40;;;5.40;99.90;;;;;;1930622;74;21136;-74
2021/03/23 02:40:19;;;;;;;15.13;5.15;;;5.40;99.90;;;;;;1934267;74;21132;-74
2021/03/23 02:42:46;;;;;;;8.60;4.67;;;5.50;99.90;;;;;;1927629;74;21082;-74
2021/03/23 02:45:12;;;;;;;9.35;5.15;;;5.50;99.90;;;;;;1924775;74;21495;-74
2021/03/23 02:47:38;;;;;;;10.82;4.67;;;5.60;99.90;;;;;;1919293;74;21512;-71
2021/03/23 02:50:04;;;;;;;12.20;5.15;;;5.60;99.90;;;;;;1922331;74;21493;-72
2021/03/23 02:52:30;;;;;;;8.08;5.17;;;5.50;99.90;;;;;;1930577;74;21506;-74
2021/03/23 02:54:56;;;;;;;10.45;5.25;;;5.50;99.90;;;;;;1916127;74;21098;-74
2021/03/23 02:57:23;;;;;;;12.25;5.45;;;5.50;99.90;;;;;;1922056;74;21073;-74
2021/03/23 02:59:49;;;;;;;9.50;5.08;;;5.50;99.90;;;;;;1919283;74;21146;-74
2021/03/23 03:02:15;;;;;;;11.18;4.87;;;5.40;99.90;;;;;;1919950;74;21071;-74
2021/03/23 03:04:43;;;;;;;10.20;5.28;;;5.50;99.90;;;;;;1922709;74;21131;-74
2021/03/23 03:07:09;;;;;;;9.10;4.97;;;5.50;99.90;;;;;;1917248;74;21098;-74
2021/03/23 03:09:35;;;;;;;13.48;5.78;;;5.50;99.90;;;;;;1924250;74;21140;-73
2021/03/23 03:12:01;;;;;;;9.25;5.05;;;5.50;99.90;;;;;;1920876;74;21059;-74
2021/03/23 03:14:27;;;;;;;10.32;5.42;;;5.40;99.90;;;;;;1927908;74;21062;-74
2021/03/23 03:16:53;;;;;;;10.38;6.12;;;5.40;99.90;;;;;;1913999;74;21132;-74
2021/03/23 03:19:19;;;;;;;9.98;5.97;;;5.40;99.90;;;;;;1926802;74;21073;-74
2021/03/23 03:21:46;;;;;;;11.50;5.97;;;5.50;99.90;;;;;;1924886;74;21500;-75
2021/03/23 03:24:12;;;;;;;14.13;6.62;;;5.50;99.90;;;;;;1934436;74;21086;-74
2021/03/23 03:26:38;;;;;;;20.10;7.12;;;5.50;99.90;;;;;;1924297;74;21067;-74
2021/03/23 03:29:04;;;;;;;19.20;7.12;;;5.50;99.90;;;;;;1930965;74;21075;-74
2021/03/23 03:31:30;;;;;;;14.18;7.40;;;5.50;99.90;;;;;;1927358;73;21066;-74
2021/03/23 03:33:57;;;;;;;13.85;7.00;;;5.50;99.90;;;;;;1931875;74;21145;-74
2021/03/23 03:36:23;;;;;;;17.32;7.53;;;5.30;99.90;;;;;;1921165;74;21095;-74
2021/03/23 03:38:49;;;;;;;15.28;6.85;;;5.30;99.90;;;;;;1934127;74;21156;-74
2021/03/23 03:41:15;;;;;;;12.82;6.37;;;5.20;99.90;;;;;;1924479;74;21549;-71
2021/03/23 03:43:41;;;;;;;16.25;7.15;;;5.30;99.90;;;;;;1928698;74;21436;-72
2021/03/23 03:46:07;;;;;;;9.03;5.47;;;5.30;99.90;;;;;;1924578;74;21533;-74
2021/03/23 03:48:33;;;;;;;16.10;5.70;;;5.30;99.90;;;;;;1913917;74;21538;-74
2021/03/23 03:50:59;;;;;;;11.15;5.97;;;5.10;99.90;;;;;;1913788;74;21058;-74
2021/03/23 03:53:26;;;;;;;10.32;5.35;;;5.00;99.90;;;;;;1928325;74;21075;-74
2021/03/23 03:55:52;;;;;;;10.88;5.78;;;4.90;99.90;;;;;;1932889;74;21039;-74
2021/03/23 03:58:18;;;;;;;15.85;6.35;;;4.90;99.90;;;;;;1925110;74;21127;-72
2021/03/23 04:00:44;;;;;;;11.12;6.00;;;4.80;99.90;;;;;;1930618;74;21153;-72
2021/03/23 04:03:10;;;;;;;13.10;6.42;;;4.90;99.90;;;;;;1915809;74;21114;-73
2021/03/23 04:05:36;;;;;;;11.83;5.60;;;4.80;99.90;;;;;;1926398;74;21132;-72
2021/03/23 04:08:02;;;;;;;11.73;5.65;;;4.80;99.90;;;;;;1924980;74;21047;-72
2021/03/23 04:10:28;;;;;;;9.43;4.85;;;4.80;99.90;;;;;;1933848;74;21111;-72
2021/03/23 04:12:55;;;;;;;16.15;5.75;;;4.80;99.90;;;;;;1924379;74;21144;-72
2021/03/23 04:15:21;;;;;;;8.28;5.45;;;4.80;99.90;;;;;;1913882;74;21054;-72
2021/03/23 04:17:47;;;;;;;10.30;5.15;;;4.70;99.90;;;;;;1927206;74;21083;-72
2021/03/23 04:20:13;;;;;;;12.18;5.15;;;4.80;99.90;;;;;;1929729;74;21035;-72
2021/03/23 04:22:39;;;;;;;9.20;5.53;;;4.70;99.90;;;;;;1917258;74;21249;-72
2021/03/23 04:25:07;;;;;;;12.50;5.60;;;4.80;99.90;;;;;;1924338;74;21258;-72
2021/03/23 04:27:33;;;;;;;7.45;5.17;;;4.80;99.90;;;;;;1931562;74;21178;-72
2021/03/23 04:29:59;;;;;;;13.50;5.65;;;4.80;99.90;;;;;;1937334;74;21063;-72
2021/03/23 04:32:25;;;;;;;9.23;5.50;;;4.80;99.90;;;;;;1920874;74;21042;-72
2021/03/23 04:34:51;;;;;;;10.55;5.67;;;4.70;99.90;;;;;;1919857;74;21121;-72
2021/03/23 04:37:17;;;;;;;15.38;5.45;;;4.80;99.90;;;;;;1913903;74;21106;-71
2021/03/23 04:39:44;;;;;;;13.83;5.62;;;4.80;99.90;;;;;;1921299;74;21072;-71
2021/03/23 04:42:10;;;;;;;13.03;5.42;;;4.70;99.90;;;;;;1935035;74;21560;-72
2021/03/23 04:44:36;;;;;;;13.60;5.67;;;4.70;99.90;;;;;;1916492;74;21426;-72
2021/03/23 04:47:02;;;;;;;15.90;5.80;;;4.80;99.90;;;;;;1920037;74;21501;-72
2021/03/23 04:49:28;;;;;;;9.63;5.58;;;4.70;99.90;;;;;;1924352;74;21491;-72
2021/03/23 04:51:54;;;;;;;11.88;5.67;;;4.70;99.90;;;;;;1922132;74;21100;-72
2021/03/23 04:54:20;;;;;;;13.58;5.20;;;4.80;99.90;;;;;;1925528;74;21069;-72
2021/03/23 04:56:46;;;;;;;7.95;5.37;;;4.80;99.90;;;;;;1929707;74;21135;-72
2021/03/23 04:59:13;;;;;;;16.42;6.15;;;4.80;99.90;;;;;;1931576;74;21038;-72
2021/03/23 05:01:40;;;;;;;11.12;5.03;;;4.80;99.90;;;;;;1922931;74;21117;-72
2021/03/23 05:04:06;;;;;;;16.25;5.17;;;4.80;99.90;;;;;;1923074;74;21501;-72
2021/03/23 05:06:32;;;;;;;15.55;5.45;;;4.70;99.90;;;;;;1923341;74;21489;-72
2021/03/23 05:08:58;;;;;;;13.13;5.78;;;4.70;99.90;;;;;;1915287;74;21199;-72
2021/03/23 05:11:24;;;;;;;10.48;4.67;;;4.60;99.90;;;;;;1919526;74;21065;-72
2021/03/23 05:13:51;;;;;;;10.23;5.70;;;4.60;99.90;;;;;;1923197;73;21058;-72
2021/03/23 05:16:17;;;;;;;13.48;5.35;;;4.60;99.90;;;;;;1924324;74;21127;-72
2021/03/23 05:18:43;;;;;;;16.65;5.50;;;4.60;99.90;;;;;;1923552;74;21057;-72
2021/03/23 05:21:09;;;;;;;10.65;5.33;;;4.70;99.90;;;;;;1931698;74;21078;-72
2021/03/23 05:23:35;;;;;;;13.53;5.95;;;4.60;99.90;;;;;;1933113;74;21083;-72
2021/03/23 05:26:01;;;;;;;10.08;5.25;;;4.60;99.90;;;;;;1929311;74;21032;-72
2021/03/23 05:28:27;;;;;;;9.70;5.28;;;4.60;99.90;;;;;;1927086;74;21479;-72
2021/03/23 05:30:54;;;;;;;8.85;4.78;;;4.60;99.90;;;;;;1924437;74;21503;-72
2021/03/23 05:33:20;;;;;;;9.20;5.10;;;4.60;99.90;;;;;;1927992;74;21543;-72
2021/03/23 05:35:46;;;;;;;9.60;5.10;;;4.60;99.90;;;;;;1915424;74;21073;-72
2021/03/23 05:38:12;;;;;;;10.45;5.05;;;4.60;99.90;;;;;;1911704;74;21061;-73
2021/03/23 05:40:38;;;;;;;10.15;5.15;;;4.60;99.90;;;;;;1923359;73;21107;-72
2021/03/23 05:43:05;;;;;;;10.08;4.83;;;4.60;99.90;;;;;;1927936;74;21036;-71
2021/03/23 05:45:31;;;;;;;10.45;5.37;;;4.60;99.90;;;;;;1925827;74;21506;-72
2021/03/23 05:47:57;;;;;;;12.30;4.75;;;4.70;99.90;;;;;;1926895;74;21044;-73
2021/03/23 05:50:23;;;;;;;9.35;4.95;;;4.80;99.90;;;;;;1931434;74;21070;-73
2021/03/23 05:52:49;;;;;;;6.80;4.40;;;4.80;99.90;;;;;;1925498;74;21596;-73
2021/03/23 05:55:16;;;;;;;9.53;5.37;;;4.70;99.90;;;;;;1913735;74;21477;-73
2021/03/23 05:57:42;;;;;;;10.63;5.58;;;4.70;99.90;;;;;;1923356;74;21506;-74
2021/03/23 06:00:08;;;;;;;9.70;5.47;;;4.80;99.90;;;;;;1921459;74;21573;-73
2021/03/23 06:02:34;;;;;;;14.93;6.35;;;4.70;99.90;;;;;;1927363;74;21128;-73
2021/03/23 06:05:00;;;;;;;12.50;5.85;;;4.80;99.90;;;;;;1928011;74;21039;-73
2021/03/23 06:07:29;;;;;;;12.13;5.30;;;4.80;99.90;;;;;;1927925;74;21067;-73
2021/03/23 06:09:54;;;;;;;11.22;5.62;;;4.80;99.90;;;;;;1925568;74;21525;-75
2021/03/23 06:12:22;;;;;;;8.43;5.33;;;4.80;99.90;;;;;;1929232;74;21507;-76
2021/03/23 06:14:48;;;;;;;12.15;5.85;;;4.90;99.90;;;;;;1913751;74;21106;-73
2021/03/23 06:17:14;;;;;;;7.53;4.80;;;4.90;99.90;;;;;;1928817;74;21084;-74
2021/03/23 06:19:40;;;;;;;9.25;5.92;;;4.90;99.90;;;;;;1921613;74;21139;-74
2021/03/23 06:22:06;;;;;;;9.58;5.10;;;4.90;99.90;;;;;;1913825;74;21541;-73
2021/03/23 06:24:32;;;;;;;9.03;5.25;;;4.80;99.90;;;;;;1926727;74;21502;-72
2021/03/23 06:26:58;;;;;;;12.28;6.20;;;4.80;99.90;;;;;;1931928;74;21486;-73
2021/03/23 06:29:25;;;;;;;9.73;5.67;;;4.80;99.90;;;;;;1917175;74;21119;-73
2021/03/23 06:31:51;;;;;;;15.15;5.95;;;4.80;99.90;;;;;;1920029;74;21042;-73
2021/03/23 06:34:17;;;;;;;12.47;5.85;;;4.80;99.90;;;;;;1928903;74;21031;-76
2021/03/23 06:36:43;;;;;;;9.05;5.28;;;4.90;99.90;;;;;;1924234;74;21201;-74
2021/03/23 06:39:10;;;;;;;7.05;4.65;;;5.00;99.90;;;;;;1927015;74;21057;-72
2021/03/23 06:41:36;;;;;;;12.25;5.65;;;5.00;99.90;;;;;;1934017;74;21083;-73
2021/03/23 06:44:02;;;;;;;9.60;5.55;;;5.10;99.90;;;;;;1919949;74;21139;-72
2021/03/23 06:46:28;;;;;;;9.03;5.62;;;5.10;99.90;;;;;;1927003;74;21153;-72
2021/03/23 06:48:55;;;;;;;14.60;5.47;;;5.10;99.90;;;;;;1920619;74;21035;-72
2021/03/23 06:51:22;;;;;;;7.75;5.10;;;5.10;99.90;;;;;;1921331;74;21059;-72
2021/03/23 06:53:48;;;;;;;17.98;5.75;;;5.10;99.90;;;;;;1923595;74;21128;-73
2021/03/23 06:56:14;;;;;;;6.78;4.80;;;5.30;99.90;;;;;;1926865;74;21065;-74
2021/03/23 06:58:41;;;;;;;11.38;5.45;;;5.20;99.90;;;;;;1927115;74;21061;-74
2021/03/23 07:01:07;;;;;;;11.38;5.40;;;5.20;99.90;;;;;;1929236;73;21064;-74
2021/03/23 07:03:33;;;;;;;11.53;4.97;;;5.20;99.90;;;;;;1929122;74;21046;-77
2021/03/23 07:05:59;;;;;;;9.60;5.25;;;5.30;99.90;;;;;;1931477;74;21144;-75
2021/03/23 07:08:27;;;;;;;9.38;5.30;;;5.30;99.90;;;;;;1935592;74;21145;-78
2021/03/23 07:10:53;;;;;;;9.20;5.65;;;5.30;99.90;;;;;;1929869;74;21062;-75
2021/03/23 07:13:19;;;;;;;17.45;5.90;;;5.40;99.90;;;;;;1932883;74;21238;-75
2021/03/23 07:15:47;;;;;;;10.13;5.60;;;5.50;99.90;;;;;;1905746;73;21508;-76
2021/03/23 07:18:13;;;;;;;12.95;5.35;;;5.40;99.90;;;;;;1932096;74;21123;-77
2021/03/23 07:20:42;;;;;;;13.72;5.45;;;5.50;99.90;;;;;;1924187;74;21024;-76
2021/03/23 07:23:08;;;;;;;14.45;6.15;;;5.60;99.90;;;;;;1922139;74;21040;-78
2021/03/23 07:25:34;;;;;;;12.00;6.33;;;5.70;99.90;;;;;;1919023;74;21516;-75
2021/03/23 07:28:01;;;;;;;9.90;4.75;;;5.70;99.90;;;;;;1928355;74;21251;-78
2021/03/23 07:30:27;;;;;;;14.30;5.28;;;5.60;99.90;;;;;;1916731;74;21065;-76
2021/03/23 07:32:53;;;;;;;12.68;5.83;;;5.80;99.90;;;;;;1920638;74;21064;-75
2021/03/23 07:35:19;;;;;;;8.48;5.40;;;5.80;99.90;;;;;;1937288;74;21133;-82
2021/03/23 07:37:45;;;;;;;19.70;5.53;;;5.80;99.90;;;;;;1922490;74;21035;-75
2021/03/23 07:40:11;;;;;;;12.07;6.03;;;5.80;99.90;;;;;;1920941;74;21062;-75
2021/03/23 07:42:37;;;;;;;9.40;5.47;;;5.70;99.90;;;;;;1917638;74;21099;-77
2021/03/23 07:45:03;;;;;;;9.05;5.08;;;5.80;99.90;;;;;;1921238;74;21225;-77
2021/03/23 07:47:30;;;;;;;12.30;6.22;;;6.00;99.90;;;;;;1930255;74;21061;-77
2021/03/23 07:49:56;;;;;;;18.40;6.17;;;6.00;99.90;;;;;;1923778;74;21071;-76
2021/03/23 07:52:22;;;;;;;11.85;5.62;;;6.10;99.90;;;;;;1919332;74;21034;-75
2021/03/23 07:54:48;;;;;;;14.07;7.00;;;6.10;99.90;;;;;;1913830;74;21038;-74
2021/03/23 07:57:14;;;;;;;16.27;6.87;;;6.00;99.90;;;;;;1913924;74;21042;-74
2021/03/23 07:59:43;;;;;;;12.30;6.90;;;6.20;99.90;;;;;;1930664;74;21499;-75
2021/03/23 08:02:08;;;;;;;12.98;7.33;;;6.30;99.90;;;;;;1921764;74;21169;-75
2021/03/23 08:04:34;;;;;;;16.97;6.62;;;6.20;99.90;;;;;;1933732;74;21148;-76
2021/03/23 08:07:00;;;;;;;19.50;7.50;;;6.40;99.90;;;;;;1920987;74;21047;-75
2021/03/23 08:09:27;;;;;;;15.28;7.17;;;6.30;99.90;;;;;;1927172;74;21132;-75
2021/03/23 08:11:53;;;;;;;17.67;7.35;;;6.50;99.90;;;;;;1924643;74;21567;-76
2021/03/23 08:14:19;;;;;;;23.65;9.78;;;6.60;99.90;;;;;;1931151;74;21148;-76
2021/03/23 08:16:45;;;;;;;28.77;8.33;;;6.70;99.90;;;;;;1923555;74;21140;-76
2021/03/23 08:19:11;;;;;;;16.42;7.85;;;6.80;99.90;;;;;;1925627;74;21153;-75
2021/03/23 08:21:37;;;;;;;19.12;8.35;;;6.90;99.90;;;;;;1927503;74;21040;-75
2021/03/23 08:24:04;;;;;;;20.45;9.28;;;6.60;99.90;;;;;;1931066;74;21040;-76
2021/03/23 08:26:33;;;;;;;18.37;9.23;;;6.30;99.90;;;;;;1933065;74;21514;-75
2021/03/23 08:29:00;;;;;;;19.98;9.33;;;6.20;99.90;;;;;;1933885;74;21195;-74
2021/03/23 08:31:27;;;;;;;31.55;10.23;;;6.30;99.90;;;;;;1919185;73;21073;-75
2021/03/23 08:33:55;;;;;;;18.40;9.15;;;6.20;99.90;;;;;;1927950;74;21078;-76
2021/03/23 08:36:22;;;;;;;18.37;9.48;;;6.30;99.90;;;;;;1916242;74;21065;-75
2021/03/23 08:38:48;;;;;;;24.70;10.00;;;6.50;99.90;;;;;;1928360;74;21078;-75
2021/03/23 08:41:16;;;;;;;19.92;8.65;;;6.80;99.90;;;;;;1919320;74;21055;-76
2021/03/23 08:43:43;;;;;;;23.05;9.30;;;7.20;99.90;;;;;;1927158;74;21061;-77
2021/03/23 08:46:12;;;;;;;21.15;9.48;;;7.50;99.90;;;;;;1914437;74;21535;-74
2021/03/23 08:48:37;;;;;;;17.25;8.75;;;7.50;99.90;;;;;;1916830;74;21094;-73
2021/03/23 08:51:04;;;;;;;20.60;9.13;;;7.20;99.90;;;;;;1927372;74;21144;-73
2021/03/23 08:53:32;;;;;;;18.32;8.75;;;7.30;99.90;;;;;;1924290;74;21073;-73
2021/03/23 08:56:04;;;;;;;20.72;8.63;;;7.20;99.90;;;;;;1923259;74;21075;-73
2021/03/23 08:58:30;;;;;;;19.82;7.60;;;7.00;99.90;;;;;;1922215;74;21043;-73
2021/03/23 09:00:57;;;;;;;18.75;8.73;;;7.10;99.90;;;;;;1928923;74;21055;-73
2021/03/23 09:03:25;;;;;;;18.50;8.73;;;7.10;99.90;;;;;;1921449;74;21113;-73
2021/03/23 09:05:54;;;;;;;18.95;8.53;;;7.20;99.90;;;;;;1931752;74;21078;-73
2021/03/23 09:08:20;;;;;;;25.48;8.40;;;7.30;99.90;;;;;;1920034;74;21207;-72
2021/03/23 09:10:46;;;;;;;21.97;9.45;;;7.30;99.90;;;;;;1926141;74;21087;-74
2021/03/23 09:13:12;;;;;;;19.98;8.75;;;7.40;99.90;;;;;;1928916;74;21139;-74
2021/03/23 09:15:38;;;;;;;16.23;9.08;;;7.70;99.90;;;;;;1926300;74;21557;-73
2021/03/23 09:18:07;;;;;;;18.60;8.95;;;7.50;99.90;;;;;;1924067;74;21489;-73
2021/03/23 09:20:34;;;;;;;17.80;8.98;;;7.80;99.90;;;;;;1932642;74;21039;-74
2021/03/23 09:23:00;;;;;;;20.02;8.90;;;7.90;99.90;;;;;;1937338;74;21114;-73
2021/03/23 09:25:26;;;;;;;15.95;8.40;;;8.20;99.90;;;;;;1924242;74;21128;-73
2021/03/23 09:27:52;;;;;;;19.48;8.75;;;8.20;99.90;;;;;;1917334;74;21143;-73
2021/03/23 09:30:18;;;;;;;20.40;9.25;;;8.00;99.90;;;;;;1923854;74;21197;-72
2021/03/23 09:32:45;;;;;;;17.20;8.65;;;8.20;99.90;;;;;;1926936;74;21047;-73
2021/03/23 09:35:13;;;;;;;12.73;6.90;;;8.30;99.90;;;;;;1930436;74;21071;-73
2021/03/23 09:37:39;;;;;;;28.27;10.60;;;8.40;99.90;;;;;;1937035;74;21215;-74
2021/03/23 09:40:05;;;;;;;19.25;7.72;;;8.80;99.90;;;;;;1929892;74;21073;-74
2021/03/23 09:42:32;;;;;;;18.20;7.92;;;8.90;99.90;;;;;;1921217;74;21043;-73
2021/03/23 09:44:58;;;;;;;16.95;7.83;;;8.90;99.90;;;;;;1931982;74;21459;-74
2021/03/23 09:47:24;;;;;;;19.55;8.05;;;8.30;99.90;;;;;;1921986;74;21044;-73
2021/03/23 09:49:50;;;;;;;23.38;8.33;;;8.30;99.90;;;;;;1936145;74;22551;-72
2021/03/23 09:52:16;;;;;;;16.93;8.30;;;8.40;99.90;;;;;;1920928;74;21196;-74
2021/03/23 09:54:42;;;;;;;15.72;8.08;;;8.50;99.90;;;;;;1921101;74;21148;-73
2021/03/23 09:57:08;;;;;;;18.55;8.58;;;8.50;99.90;;;;;;1926170;74;21489;-74
2021/03/23 09:59:35;;;;;;;17.00;6.58;;;8.60;99.90;;;;;;1926480;74;21425;-73
2021/03/23 10:02:01;;;;;;;18.75;6.55;;;8.60;99.90;;;;;;1923983;74;21474;-73
2021/03/23 10:04:27;;;;;;;12.45;6.50;;;8.70;99.90;;;;;;1917330;74;21062;-74
2021/03/23 10:06:55;;;;;;;20.57;7.03;;;8.90;99.90;;;;;;1921091;74;21099;-74
2021/03/23 10:09:21;;;;;;;20.70;7.47;;;9.00;99.90;;;;;;1928197;74;21176;-73
2021/03/23 10:11:48;;;;;;;12.35;6.72;;;8.60;99.90;;;;;;1927886;74;21086;-73
2021/03/23 10:14:15;;;;;;;14.65;8.45;;;8.30;99.90;;;;;;1899310;73;21131;-73
2021/03/23 10:16:41;;;;;;;16.70;6.92;;;8.20;99.90;;;;;;1929763;74;21044;-72
2021/03/23 10:19:07;;;;;;;11.28;5.85;;;8.50;99.90;;;;;;1924872;74;21030;-73
2021/03/23 10:21:33;;;;;;;15.60;6.47;;;8.60;99.90;;;;;;1924881;74;21034;-73
2021/03/23 10:23:59;;;;;;;10.78;6.25;;;8.60;99.90;;;;;;1926046;74;21807;-73
2021/03/23 10:26:25;;;;;;;10.82;5.87;;;8.60;99.90;;;;;;1926173;74;21062;-72
2021/03/23 10:28:55;;;;;;;9.93;4.90;;;8.50;99.90;;;;;;1926186;74;21066;-73
2021/03/23 10:31:19;;;;;;;11.35;5.12;;;8.60;99.90;;;;;;1923152;74;21411;-75
2021/03/23 10:33:46;;;;;;;10.55;4.65;;;8.70;99.90;;;;;;1924678;74;21072;-76
2021/03/23 10:36:12;;;;;;;12.37;5.40;;;8.50;99.90;;;;;;1933342;74;21063;-76
2021/03/23 10:38:38;;;;;;;7.25;4.37;;;8.00;99.90;;;;;;1928055;74;21069;-75
2021/03/23 10:41:04;;;;;;;7.97;5.12;;;8.10;99.90;;;;;;1931279;74;21487;-76
2021/03/23 10:43:31;;;;;;;10.58;4.90;;;8.20;99.90;;;;;;1932514;74;21515;-76
2021/03/23 10:45:58;;;;;;;15.38;5.10;;;8.50;99.90;;;;;;1922627;74;21062;-76
2021/03/23 10:48:25;;;;;;;7.40;4.35;;;8.60;99.90;;;;;;1928935;74;21490;-75
2021/03/23 10:50:51;;;;;;;10.20;4.50;;;8.40;99.90;;;;;;1930819;74;21071;-75
2021/03/23 10:53:19;;;;;;;8.90;4.72;;;7.90;99.90;;;;;;1928106;74;21135;-75
2021/03/23 10:55:45;;;;;;;11.40;4.95;;;8.00;99.90;;;;;;1926782;73;21128;-75
2021/03/23 10:58:11;;;;;;;20.32;5.00;;;8.40;99.90;;;;;;1925815;74;21078;-75
2021/03/23 11:00:39;;;;;;;13.28;5.58;;;8.40;99.90;;;;;;1917411;74;21058;-77
2021/03/23 11:03:05;;;;;;;10.43;4.78;;;8.50;99.90;;;;;;1917603;74;21062;-75
2021/03/23 11:05:31;;;;;;;8.10;4.55;;;8.20;99.90;;;;;;1920729;74;21137;-75
2021/03/23 11:08:00;;;;;;;15.20;4.42;;;8.20;99.90;;;;;;1924144;74;21547;-75
2021/03/23 11:10:25;;;;;;;9.48;4.80;;;8.40;99.90;;;;;;1917231;74;21099;-76
2021/03/23 11:12:56;;;;;;;11.57;5.00;;;8.30;99.90;;;;;;1917391;74;21065;-76
2021/03/23 11:15:19;;;;;;;9.63;4.70;;;8.10;99.90;;;;;;1920763;74;21108;-76
2021/03/23 11:17:48;;;;;;;11.57;5.28;;;8.30;99.90;;;;;;1921697;74;21062;-78
2021/03/23 11:20:13;;;;;;;14.13;4.75;;;8.40;99.90;;;;;;1923032;74;21187;-75
2021/03/23 11:22:39;;;;;;;10.53;4.83;;;8.60;99.90;;;;;;1915032;74;21058;-76
2021/03/23 11:25:05;;;;;;;8.20;4.28;;;8.40;99.90;;;;;;1917295;74;21147;-74
2021/03/23 11:27:31;;;;;;;13.72;5.00;;;8.60;99.90;;;;;;1931495;74;21063;-73
2021/03/23 11:29:58;;;;;;;11.45;4.58;;;8.80;99.90;;;;;;1927057;74;21078;-74
2021/03/23 11:32:24;;;;;;;13.72;5.83;;;9.00;99.90;;;;;;1932563;74;21063;-72
2021/03/23 11:34:50;;;;;;;8.35;5.03;;;9.10;99.90;;;;;;1922639;74;21191;-70
2021/03/23 11:37:16;;;;;;;10.20;4.78;;;9.00;99.90;;;;;;1933149;74;21141;-72
2021/03/23 11:39:42;;;;;;;10.68;4.85;;;9.00;99.90;;;;;;1931572;74;21044;-72
2021/03/23 11:42:08;;;;;;;9.85;4.83;;;9.00;99.90;;;;;;1917761;74;21482;-71
2021/03/23 11:44:34;;;;;;;10.45;5.33;;;8.50;99.90;;;;;;1923081;74;21071;-72
2021/03/23 11:47:05;;;;;;;21.02;5.97;;;8.30;99.90;;;;;;1923329;74;21066;-72
2021/03/23 11:49:28;;;;;;;14.53;4.92;;;8.40;99.90;;;;;;1916418;74;21783;-71
2021/03/23 11:51:54;;;;;;;11.85;5.08;;;8.70;99.90;;;;;;1913860;74;21588;-71
2021/03/23 11:54:21;;;;;;;11.57;4.55;;;8.90;99.90;;;;;;1922602;74;21078;-71
2021/03/23 11:56:47;;;;;;;13.58;5.33;;;8.90;99.90;;;;;;1935180;74;21059;-72
2021/03/23 11:59:13;;;;;;;11.48;5.00;;;8.90;99.90;;;;;;1913923;74;21070;-72
2021/03/23 12:01:42;;;;;;;10.08;4.33;;;8.90;99.90;;;;;;1921954;74;21050;-72
2021/03/23 12:04:08;;;;;;;8.65;4.25;;;8.90;99.90;;;;;;1928179;74;21588;-72
2021/03/23 12:06:34;;;;;;;11.45;5.65;;;8.40;99.90;;;;;;1913861;74;21517;-72
2021/03/23 12:09:00;;;;;;;7.28;3.77;;;8.40;99.90;;;;;;1918020;74;21502;-72
2021/03/23 12:11:26;;;;;;;6.12;3.17;;;8.40;99.90;;;;;;1926311;74;21446;-72
2021/03/23 12:13:53;;;;;;;11.12;3.40;;;8.20;99.90;;;;;;1924963;74;21047;-74
2021/03/23 12:16:19;;;;;;;12.37;5.28;;;8.10;99.90;;;;;;1919016;74;21031;-75
2021/03/23 12:18:45;;;;;;;8.65;3.58;;;8.20;99.90;;;;;;1924532;74;21087;-75
2021/03/23 12:21:11;;;;;;;8.30;3.52;;;8.30;99.90;;;;;;1921865;74;21467;-75
2021/03/23 12:23:37;;;;;;;4.92;3.12;;;8.60;99.90;;;;;;1932191;74;21573;-75
2021/03/23 12:26:03;;;;;;;6.67;3.40;;;8.70;99.90;;;;;;1933300;74;21502;-75
2021/03/23 12:28:30;;;;;;;7.95;3.40;;;8.80;99.90;;;;;;1927032;74;21110;-75
2021/03/23 12:30:56;;;;;;;8.98;4.25;;;8.90;99.90;;;;;;1915071;74;21139;-76
2021/03/23 12:33:22;;;;;;;6.08;3.50;;;8.90;99.90;;;;;;1919905;74;21505;-74
2021/03/23 12:35:48;;;;;;;6.17;3.17;;;8.90;99.90;;;;;;1923472;74;21140;-75
2021/03/23 12:38:14;;;;;;;8.78;3.27;;;8.80;99.90;;;;;;1920862;74;21123;-75
2021/03/23 12:40:40;;;;;;;7.45;3.35;;;8.70;99.90;;;;;;1915976;74;21121;-75
2021/03/23 12:43:12;;;;;;;6.25;2.85;;;9.10;99.90;;;;;;1934219;74;21071;-76
2021/03/23 12:45:37;;;;;;;6.95;3.15;;;9.30;99.90;;;;;;1933015;73;21466;-76